Terminal Aerodrome Forecast
Issued by NWS

Home | Current Version | Previous Version | Text Only | Print | Product List | Glossary On
Versions: 1 2 3 4 5 6 7 8 9 10 11 12 13 14 15 16
000
FTUS46 KMTR 190522
TAFOAK
TAF
KOAK 190522Z 1906/2012 29006KT P6SM FEW010
     FM190700 29005KT P6SM BKN008
     FM191600 VRB04KT P6SM SCT009
     FM192100 30013KT P6SM FEW010
     FM200200 30006KT P6SM FEW010
     FM200700 28007KT P6SM BKN008=

USA.gov is the U.S. government's official web portal to all federal, state and local government web resources and services.